Kezdőlap
METAR-TAF:

METAR-TAF

Repülőterek :

Jacksons nemzetközi repülőtér

Port Moresby, Pápua Új-Guinea

földrajzi szélesség: 09-26S, földrajzi hosszúság: 147-13E, magasság: 38 m

Jelenlegi meteorológiai megfigyelések

A jelentés 1 órával és 19 perccel ezelõtt készült, 06:00 UTC
Nyugati szél 10 kt
Hőmérséklet 31°C
Páratartalom 71%
Légköri nyomás 1008 hPa
Látótávolság 10 km, vagy több
Szórványos felhőzet 2000 lábon

METAR: AYPY 130600Z 27010KT 9999 SCT020 31/25 Q1008

Idő: 17:19 (07:19 UTC)

Előrejelzés

A jelentés 3 órával és 49 perccel ezelõtt készült, 03:30 UTC
Az előrejelzés 13-én 06 óra UTC és 14-én 06 óra UTC között érvényes
Nyugat-északnyugati szél 10 kt
Látótávolság 10 km, vagy több
Szórványos felhőzet 1800 lábon
Szakadozott felhőzet 14000 lábon
enyhe záporok

TAF: AYPY 130330Z 1306/1406 30010KT 9999 -SHRA SCT018 BKN140

Meteorológiai megfigyelések és előrejelzések több, mint 4000 repülőtéren (METAR és TAF jelentéseket).

A térképen piros és sárga pontok jelzik az elérhető meteorológiai állomásokat.

Mozgassa az egeret a pont fölött, hogy megjelenjen az állomás neve.

Azután kattintson az időjárási megfigyelések és előrejelzések megtekintéséhez.

A térkép megváltoztatása: kattintson a fekete keresztel jelölt zöld gombra ráközelítéshez, a vonallal jelölt zöld gombra távolításhoz, vagy a zöld nyilakra a szomszédos térképek eléréséhez.


METAR-TAF: